createdAt,value
2023-05-09T00:04:34.579Z,100826.09
2023-05-09T00:09:36.833Z,100823.25
2023-05-09T00:14:41.095Z,100825.81
2023-05-09T00:19:44.351Z,100847.50
2023-05-09T00:24:46.808Z,100863.34
2023-05-09T00:29:49.086Z,100872.50
2023-05-09T00:34:51.480Z,100900.44
2023-05-09T00:39:53.945Z,100835.59
2023-05-09T00:44:56.267Z,100798.84
2023-05-09T00:49:58.830Z,100804.19
2023-05-09T00:55:02.693Z,100905.75
2023-05-09T01:00:07.416Z,100847.81
2023-05-09T01:05:10.541Z,100921.50
2023-05-09T01:10:31.700Z,100916.59
2023-05-09T01:15:50.787Z,100924.06
2023-05-09T01:20:59.049Z,100926.28
2023-05-09T01:26:41.979Z,100923.59
2023-05-09T01:31:45.970Z,100862.09
2023-05-09T01:36:50.652Z,100782.75
2023-05-09T01:41:55.543Z,100826.13
2023-05-09T01:46:59.120Z,100829.50
2023-05-09T01:52:05.157Z,100930.69
2023-05-09T01:57:08.915Z,100808.78
2023-05-09T02:02:12.095Z,100861.88
2023-05-09T02:07:14.673Z,100931.06
2023-05-09T02:12:17.283Z,100878.41
2023-05-09T02:17:19.656Z,100895.19
2023-05-09T02:22:22.301Z,100904.81
2023-05-09T02:27:25.139Z,100907.41
2023-05-09T02:32:30.815Z,100934.09
2023-05-09T02:37:34.026Z,100938.44
2023-05-09T02:42:37.212Z,100897.25
2023-05-09T02:47:40.072Z,100940.22
2023-05-09T02:52:42.467Z,100832.53
2023-05-09T02:57:44.943Z,100857.34
2023-05-09T03:02:47.477Z,100948.31
2023-05-09T03:07:52.395Z,100857.66
2023-05-09T03:12:54.766Z,100859.53
2023-05-09T03:17:57.324Z,100926.63
2023-05-09T03:22:59.705Z,100876.38
2023-05-09T03:28:02.384Z,100940.81
2023-05-09T03:33:06.559Z,100922.53
2023-05-09T03:38:08.866Z,100884.91
2023-05-09T03:43:11.417Z,100911.09
2023-05-09T03:48:13.827Z,100967.50
2023-05-09T03:53:24.205Z,100836.56
2023-05-09T03:58:28.436Z,100969.38
2023-05-09T04:03:32.368Z,100909.47
2023-05-09T04:08:35.284Z,100948.94
2023-05-09T04:13:39.520Z,100971.97
2023-05-09T04:18:52.775Z,100856.28
2023-05-09T04:23:55.360Z,100918.97
2023-05-09T04:29:05.226Z,100907.41
2023-05-09T04:34:08.252Z,100916.00
2023-05-09T04:39:13.272Z,100947.50
2023-05-09T04:44:24.783Z,100906.69
2023-05-09T04:49:27.352Z,100963.91
2023-05-09T04:54:29.769Z,100945.28
2023-05-09T04:59:33.281Z,100910.16
2023-05-09T05:04:36.590Z,100962.59
2023-05-09T05:09:39.148Z,100944.22
2023-05-09T05:14:41.565Z,100886.38
2023-05-09T05:19:45.902Z,100927.13
2023-05-09T05:24:49.069Z,100952.44
2023-05-09T05:29:51.651Z,100926.72
2023-05-09T05:34:54.266Z,100921.34
2023-05-09T05:39:57.048Z,100869.16
2023-05-09T05:45:08.643Z,100895.03
2023-05-09T05:50:16.593Z,100889.81
2023-05-09T05:55:19.203Z,100929.38
2023-05-09T06:00:22.757Z,100890.84
2023-05-09T06:05:35.695Z,100932.94
2023-05-09T06:10:38.130Z,100926.44
2023-05-09T06:15:40.572Z,100838.63
2023-05-09T06:20:42.909Z,100852.22
2023-05-09T06:25:45.275Z,100892.81
2023-05-09T06:30:47.732Z,100863.38
2023-05-09T06:35:50.682Z,100871.00
2023-05-09T06:40:52.989Z,100865.13
2023-05-09T06:45:55.341Z,100849.88
2023-05-09T06:50:57.708Z,100847.78
2023-05-09T06:56:00.144Z,100894.47
2023-05-09T07:01:02.567Z,100881.19
2023-05-09T07:06:05.457Z,100858.06
2023-05-09T07:11:07.809Z,100841.41
2023-05-09T07:16:10.260Z,100871.50
2023-05-09T07:21:12.778Z,100807.09
2023-05-09T07:26:15.173Z,100825.66
2023-05-09T07:31:17.873Z,100749.22
2023-05-09T07:36:26.176Z,100802.84
2023-05-09T07:41:28.621Z,100867.22
2023-05-09T07:46:33.980Z,100828.53
2023-05-09T07:51:36.335Z,100838.09
2023-05-09T07:56:40.234Z,100855.81
2023-05-09T08:01:45.817Z,100780.13
2023-05-09T08:06:48.355Z,100806.66
2023-05-09T08:11:55.463Z,100782.16
2023-05-09T08:28:08.856Z,100763.75
2023-05-09T08:33:12.086Z,100750.69
2023-05-09T08:38:16.556Z,100784.38
2023-05-09T08:43:20.942Z,100793.28
2023-05-09T08:48:23.880Z,100746.66
2023-05-09T08:53:27.918Z,100706.31
2023-05-09T08:58:31.948Z,100797.50
2023-05-09T09:03:34.484Z,100753.03
2023-05-09T09:08:37.066Z,100750.66
2023-05-09T09:13:41.402Z,100778.16
2023-05-09T09:18:44.118Z,100752.66
2023-05-09T09:23:50.676Z,100771.09
2023-05-09T09:28:55.313Z,100756.22
2023-05-09T09:34:02.483Z,100765.78
2023-05-09T09:39:06.041Z,100739.31
2023-05-09T09:44:09.924Z,100767.41
2023-05-09T09:49:14.309Z,100748.91
2023-05-09T09:54:16.850Z,100695.28
2023-05-09T09:59:25.338Z,100698.81
2023-05-09T10:04:30.834Z,100734.13
2023-05-09T10:09:38.381Z,100704.19
2023-05-09T10:14:42.677Z,100744.03
2023-05-09T10:19:46.844Z,100747.88
2023-05-09T10:24:58.104Z,100711.31
2023-05-09T10:30:07.998Z,100728.19
2023-05-09T10:35:14.575Z,100675.63
2023-05-09T10:40:18.182Z,100635.31
2023-05-09T10:45:22.578Z,100664.44
2023-05-09T10:50:25.726Z,100683.00
2023-05-09T10:55:40.383Z,100699.72
2023-05-09T11:00:43.032Z,100694.44
2023-05-09T11:05:47.452Z,100656.69
2023-05-09T11:10:50.020Z,100596.88
2023-05-09T11:16:09.042Z,100675.09
2023-05-09T11:21:12.164Z,100646.06
2023-05-09T11:26:15.381Z,100612.66
2023-05-09T11:31:19.529Z,100588.94
2023-05-09T11:36:29.966Z,100654.84
2023-05-09T11:41:39.824Z,100655.69
2023-05-09T11:46:43.164Z,100649.56
2023-05-09T11:51:45.786Z,100635.56
2023-05-09T11:56:48.196Z,100626.81
2023-05-09T12:01:50.828Z,100614.59
2023-05-09T12:06:53.341Z,100593.56
2023-05-09T12:11:56.971Z,100610.25
2023-05-09T12:17:00.508Z,100586.59
2023-05-09T12:22:08.289Z,100599.78
2023-05-09T12:27:10.881Z,100551.47
2023-05-09T12:32:14.899Z,100589.19
2023-05-09T12:37:20.310Z,100554.06
2023-05-09T12:42:22.823Z,100452.25
2023-05-09T12:47:29.853Z,100455.78
2023-05-09T12:58:03.169Z,100531.97
2023-05-09T13:03:06.482Z,100461.84
2023-05-09T13:08:09.024Z,100552.13
2023-05-09T13:13:19.858Z,100525.72
2023-05-09T13:18:23.686Z,100522.19
2023-05-09T13:23:26.350Z,100492.41
2023-05-09T13:28:28.822Z,100500.34
2023-05-09T13:33:31.890Z,100524.91
2023-05-09T13:38:39.027Z,100524.88
2023-05-09T13:43:42.928Z,100487.16
2023-05-09T13:48:45.596Z,100477.59
2023-05-09T13:53:48.032Z,100509.19
2023-05-09T13:58:50.518Z,100454.91
2023-05-09T14:03:53.089Z,100470.72
2023-05-09T14:08:56.662Z,100486.53
2023-05-09T14:13:59.077Z,100432.16
2023-05-09T14:19:01.822Z,100498.81
2023-05-09T14:24:04.893Z,100404.97
2023-05-09T14:29:07.417Z,100429.53
2023-05-09T14:34:09.964Z,100450.56
2023-05-09T14:39:12.920Z,100446.19
2023-05-09T14:44:15.450Z,100458.47
2023-05-09T14:49:17.860Z,100438.31
2023-05-09T14:54:20.390Z,100414.59
2023-05-09T14:59:23.503Z,100450.56
2023-05-09T15:04:30.972Z,100420.75
2023-05-09T15:09:33.607Z,100449.69
2023-05-09T15:14:36.208Z,100425.13
2023-05-09T15:19:38.749Z,100446.16
2023-05-09T15:24:44.007Z,100433.03
2023-05-09T15:29:47.485Z,100372.47
2023-05-09T15:34:49.841Z,100406.66
2023-05-09T15:39:52.632Z,100447.06
2023-05-09T15:44:55.197Z,100452.28
2023-05-09T15:49:57.656Z,100382.97
2023-05-09T15:55:00.313Z,100400.50
2023-05-09T16:00:02.843Z,100414.53
2023-05-09T16:05:15.041Z,100376.78
2023-05-09T16:10:17.827Z,100418.91
2023-05-09T16:15:20.601Z,100349.56
2023-05-09T16:20:23.378Z,100424.13
2023-05-09T16:25:25.835Z,100381.09
2023-05-09T16:30:28.467Z,100335.44
2023-05-09T16:35:34.277Z,100424.03
2023-05-09T16:40:37.239Z,100343.25
2023-05-09T16:45:39.847Z,100401.09
2023-05-09T16:50:43.737Z,100418.59
2023-05-09T16:55:47.737Z,100362.34
2023-05-09T17:00:51.329Z,100409.66
2023-05-09T17:05:53.838Z,100318.16
2023-05-09T17:10:56.380Z,100390.81
2023-05-09T17:15:58.912Z,100342.41
2023-05-09T17:21:01.911Z,100435.31
2023-05-09T17:26:04.431Z,100441.31
2023-05-09T17:31:07.470Z,100429.78
2023-05-09T17:36:10.132Z,100316.22
2023-05-09T17:41:12.774Z,100402.16
2023-05-09T17:46:15.371Z,100438.81
2023-05-09T17:51:17.999Z,100329.66
2023-05-09T17:56:20.579Z,100315.44
2023-05-09T18:01:23.625Z,100407.59
2023-05-09T18:06:26.723Z,100408.34
2023-05-09T18:11:29.530Z,100358.03
2023-05-09T18:16:34.366Z,100371.88
2023-05-09T18:21:38.061Z,100330.50
2023-05-09T18:26:40.568Z,100423.56
2023-05-09T18:31:44.876Z,100307.34
2023-05-09T18:36:47.691Z,100319.53
2023-05-09T18:41:50.195Z,100379.06
2023-05-09T18:46:54.602Z,100223.41
2023-05-09T18:51:57.288Z,100085.91
2023-05-09T18:56:59.689Z,100243.84
2023-05-09T19:02:02.214Z,100433.28
2023-05-09T19:07:06.104Z,100320.47
2023-05-09T19:12:10.082Z,100343.31
2023-05-09T19:17:14.096Z,100368.75
2023-05-09T19:22:16.668Z,100427.66
2023-05-09T19:27:19.571Z,100438.88
2023-05-09T19:32:22.596Z,100425.69
2023-05-09T19:37:25.068Z,100424.59
2023-05-09T19:42:28.295Z,100355.66
2023-05-09T19:47:30.958Z,100425.03
2023-05-09T19:52:33.564Z,100294.38
2023-05-09T19:57:39.561Z,100396.22
2023-05-09T20:02:42.005Z,100382.81
2023-05-09T20:07:44.645Z,100418.03
2023-05-09T20:12:47.799Z,100418.63
2023-05-09T20:17:50.382Z,100384.81
2023-05-09T20:22:52.733Z,100393.47
2023-05-09T20:27:55.104Z,100343.38
2023-05-09T20:32:59.075Z,100418.09
2023-05-09T20:38:01.743Z,100385.41
2023-05-09T20:43:04.189Z,100360.66
2023-05-09T20:48:07.068Z,100387.78
2023-05-09T20:53:09.595Z,100222.97
2023-05-09T20:58:15.149Z,100402.22
2023-05-09T21:03:17.740Z,100424.97
2023-05-09T21:08:21.777Z,100417.84
2023-05-09T21:13:34.341Z,100419.53
2023-05-09T21:18:36.729Z,100327.78
2023-05-09T21:23:39.036Z,100426.41
2023-05-09T21:28:41.425Z,100308.56
2023-05-09T21:33:43.840Z,100395.56
2023-05-09T21:38:46.219Z,100376.78
2023-05-09T21:43:49.080Z,100372.34
2023-05-09T21:48:51.531Z,100283.34
2023-05-09T21:53:53.902Z,100382.75
2023-05-09T21:58:56.428Z,100331.69
2023-05-09T22:03:59.322Z,100269.00
2023-05-09T22:09:01.804Z,100305.03
2023-05-09T22:14:04.337Z,100393.00
2023-05-09T22:19:06.879Z,100412.41
2023-05-09T22:24:09.364Z,100250.25
2023-05-09T22:29:11.742Z,100370.19
2023-05-09T22:34:14.369Z,100400.06
2023-05-09T22:39:17.193Z,100349.81
2023-05-09T22:44:19.651Z,100366.50
2023-05-09T22:49:22.482Z,100335.47
2023-05-09T22:54:24.984Z,100362.00
2023-05-09T22:59:27.540Z,100322.38
2023-05-09T23:04:30.040Z,100348.63
2023-05-09T23:09:32.473Z,100374.06
2023-05-09T23:14:35.088Z,100203.13
2023-05-09T23:19:37.664Z,100262.94
2023-05-09T23:24:40.167Z,100391.59
2023-05-09T23:29:42.649Z,100309.69
2023-05-09T23:34:45.088Z,100358.31
2023-05-09T23:39:47.412Z,100377.50
2023-05-09T23:44:49.807Z,100369.53
2023-05-09T23:49:52.300Z,100354.63
2023-05-09T23:54:54.739Z,100382.88
2023-05-09T23:59:57.315Z,100338.66
